createdAt,value
2018-10-18T00:00:04.430Z,77301.23
2018-10-18T00:02:32.423Z,77301.23
2018-10-18T00:04:59.582Z,77307.23
2018-10-18T00:07:27.411Z,77305.23
2018-10-18T00:09:54.506Z,77309.23
2018-10-18T00:12:22.537Z,77311.23
2018-10-18T00:14:49.749Z,77305.23
2018-10-18T00:17:23.244Z,77308.23
2018-10-18T00:19:50.392Z,77302.23
2018-10-18T00:22:17.666Z,77303.23
2018-10-18T00:24:45.723Z,77307.23
2018-10-18T00:27:14.756Z,77309.23
2018-10-18T00:29:41.844Z,77303.23
2018-10-18T00:32:10.017Z,77308.23
2018-10-18T00:34:38.144Z,77312.23
2018-10-18T00:37:06.205Z,77311.23
2018-10-18T00:39:34.364Z,77312.23
2018-10-18T00:42:01.631Z,77311.23
2018-10-18T00:44:29.872Z,77316.24
2018-10-18T00:46:57.913Z,77318.25
2018-10-18T00:49:25.928Z,77313.23
2018-10-18T00:51:54.032Z,77317.24
2018-10-18T00:54:22.051Z,77314.24
2018-10-18T00:56:49.964Z,77308.23
2018-10-18T00:59:18.199Z,77311.23
2018-10-18T01:01:46.206Z,77311.23
2018-10-18T01:04:15.284Z,77309.23
2018-10-18T01:06:42.415Z,77310.23
2018-10-18T01:09:10.835Z,77314.24
2018-10-18T01:11:38.066Z,77309.23
2018-10-18T01:14:05.332Z,77307.23
2018-10-18T01:16:33.332Z,77307.23
2018-10-18T01:19:00.498Z,77307.23
2018-10-18T01:21:27.711Z,77307.23
2018-10-18T01:23:54.902Z,77305.23
2018-10-18T01:26:22.008Z,77306.23
2018-10-18T01:28:49.124Z,77312.23
2018-10-18T01:31:16.361Z,77311.23
2018-10-18T01:33:43.637Z,77307.23
2018-10-18T01:36:10.930Z,77308.23
2018-10-18T01:38:38.841Z,77307.23
2018-10-18T01:41:06.044Z,77307.23
2018-10-18T01:43:33.205Z,77311.23
2018-10-18T01:46:01.252Z,77310.23
2018-10-18T01:48:28.481Z,77307.23
2018-10-18T01:50:55.598Z,77304.23
2018-10-18T01:53:23.579Z,77307.23
2018-10-18T01:55:50.770Z,77309.23
2018-10-18T01:58:18.723Z,77309.23
2018-10-18T02:00:46.834Z,77300.23
2018-10-18T02:03:15.846Z,77293.22
2018-10-18T02:05:44.758Z,77286.21
2018-10-18T02:08:12.018Z,77283.21
2018-10-18T02:10:39.886Z,77276.20
2018-10-18T02:13:07.020Z,77279.20
2018-10-18T02:15:35.055Z,77283.21
2018-10-18T02:18:03.118Z,77279.20
2018-10-18T02:20:31.103Z,77281.20
2018-10-18T02:22:59.014Z,77279.20
2018-10-18T02:25:27.158Z,77281.20
2018-10-18T02:27:55.174Z,77285.21
2018-10-18T02:30:22.503Z,77290.22
2018-10-18T02:32:53.385Z,77296.22
2018-10-18T02:35:21.612Z,77295.22
2018-10-18T02:37:49.574Z,77301.23
2018-10-18T02:40:16.656Z,77300.23
2018-10-18T02:42:44.472Z,77302.23
2018-10-18T02:45:11.631Z,77303.23
2018-10-18T02:47:38.850Z,77303.23
2018-10-18T02:50:06.186Z,77299.23
2018-10-18T02:52:34.051Z,77299.23
2018-10-18T02:55:02.274Z,77303.23
2018-10-18T02:57:30.284Z,77307.23
2018-10-18T02:59:58.314Z,77301.23
2018-10-18T03:02:26.259Z,77301.23
2018-10-18T03:04:53.314Z,77303.23
2018-10-18T03:07:21.469Z,77302.23
2018-10-18T03:09:49.666Z,77301.23
2018-10-18T03:12:17.737Z,77305.23
2018-10-18T03:14:45.696Z,77305.23
2018-10-18T03:17:14.430Z,77302.23
2018-10-18T03:19:42.427Z,77300.23
2018-10-18T03:22:09.571Z,77300.23
2018-10-18T03:24:37.619Z,77298.23
2018-10-18T03:27:05.035Z,77299.23
2018-10-18T03:29:32.169Z,77301.23
2018-10-18T03:31:59.248Z,77299.23
2018-10-18T03:34:27.318Z,77302.23
2018-10-18T03:36:54.387Z,77302.23
2018-10-18T03:39:21.601Z,77303.23
2018-10-18T03:41:48.751Z,77306.23
2018-10-18T03:44:16.982Z,77306.23
2018-10-18T03:46:44.813Z,77303.23
2018-10-18T03:49:12.007Z,77302.23
2018-10-18T03:51:40.063Z,77303.23
2018-10-18T03:54:08.103Z,77308.23
2018-10-18T03:56:36.488Z,77310.23
2018-10-18T03:59:03.786Z,77309.23
2018-10-18T04:01:31.764Z,77304.23
2018-10-18T04:03:59.816Z,77309.23
2018-10-18T04:06:27.888Z,77307.23
2018-10-18T04:08:55.910Z,77306.23
2018-10-18T04:11:23.963Z,77303.23
2018-10-18T04:13:51.110Z,77303.23
2018-10-18T04:16:19.027Z,77309.23
2018-10-18T04:18:47.070Z,77308.23
2018-10-18T04:21:15.083Z,77306.23
2018-10-18T04:23:42.182Z,77307.23
2018-10-18T04:26:09.418Z,77304.23
2018-10-18T04:28:38.521Z,77306.23
2018-10-18T04:31:06.161Z,77308.23
2018-10-18T04:33:34.096Z,77310.23
2018-10-18T04:36:02.113Z,77312.23
2018-10-18T04:38:30.232Z,77312.23
2018-10-18T04:40:58.399Z,77314.24
2018-10-18T04:43:25.744Z,77321.25
2018-10-18T04:45:53.105Z,77318.25
2018-10-18T04:48:20.218Z,77323.25
2018-10-18T04:50:47.407Z,77324.25
2018-10-18T04:53:15.397Z,77324.25
2018-10-18T04:55:43.571Z,77325.25
2018-10-18T04:58:10.731Z,77322.25
2018-10-18T05:00:37.826Z,77328.25
2018-10-18T05:03:05.101Z,77327.25
2018-10-18T05:05:38.892Z,77337.27
2018-10-18T05:08:06.042Z,77337.27
2018-10-18T05:10:33.256Z,77331.26
2018-10-18T05:13:00.350Z,77331.26
2018-10-18T05:15:28.396Z,77332.26
2018-10-18T05:17:55.753Z,77333.26
2018-10-18T05:20:23.230Z,77338.27
2018-10-18T05:22:50.490Z,77335.27
2018-10-18T05:25:17.753Z,77336.27
2018-10-18T05:27:45.869Z,77342.27
2018-10-18T05:30:14.022Z,77343.27
2018-10-18T05:32:41.231Z,77349.27
2018-10-18T05:35:08.371Z,77356.28
2018-10-18T05:37:36.405Z,77360.28
2018-10-18T05:40:04.669Z,77366.29
2018-10-18T05:42:31.937Z,77366.29
2018-10-18T05:44:59.059Z,77372.30
2018-10-18T05:47:26.197Z,77372.30
2018-10-18T05:49:53.371Z,77370.30
2018-10-18T05:52:20.713Z,77366.29
2018-10-18T05:54:47.948Z,77365.29
2018-10-18T05:57:16.161Z,77366.29
2018-10-18T05:59:43.881Z,77365.29
2018-10-18T06:02:11.050Z,77371.30
2018-10-18T06:04:38.196Z,77366.29
2018-10-18T06:07:06.195Z,77366.29
2018-10-18T06:09:34.981Z,77371.30
2018-10-18T06:12:03.427Z,77375.30
2018-10-18T06:14:30.663Z,77377.30
2018-10-18T06:16:57.899Z,77376.30
2018-10-18T06:19:25.159Z,77375.30
2018-10-18T06:21:52.452Z,77377.30
2018-10-18T06:24:19.623Z,77381.30
2018-10-18T06:29:29.982Z,77376.30
2018-10-18T06:31:56.824Z,77375.30
2018-10-18T06:34:23.711Z,77376.30
2018-10-18T06:36:50.599Z,77387.31
2018-10-18T06:39:17.610Z,77386.31
2018-10-18T06:41:45.231Z,77385.31
2018-10-18T06:44:12.089Z,77383.30
2018-10-18T06:46:39.765Z,77382.30
2018-10-18T06:49:06.790Z,77385.31
2018-10-18T06:51:35.192Z,77390.31
2018-10-18T06:54:02.164Z,77389.31
2018-10-18T06:56:29.907Z,77389.31
2018-10-18T06:58:57.653Z,77397.32
2018-10-18T07:01:24.519Z,77398.32
2018-10-18T07:03:52.383Z,77398.32
2018-10-18T07:06:19.278Z,77397.32
2018-10-18T07:08:46.169Z,77411.33
2018-10-18T07:11:14.222Z,77406.33
2018-10-18T07:13:42.067Z,77405.33
2018-10-18T07:16:08.914Z,77405.33
2018-10-18T07:18:35.809Z,77402.33
2018-10-18T07:21:02.697Z,77396.32
2018-10-18T07:23:30.502Z,77400.33
2018-10-18T07:25:57.393Z,77397.32
2018-10-18T07:28:24.264Z,77397.32
2018-10-18T07:30:52.015Z,77397.32
2018-10-18T07:33:18.912Z,77397.32
2018-10-18T07:35:45.743Z,77404.33
2018-10-18T07:38:12.608Z,77399.32
2018-10-18T07:40:39.457Z,77406.33
2018-10-18T07:43:07.262Z,77399.32
2018-10-18T07:45:34.998Z,77395.31
2018-10-18T07:48:02.912Z,77391.31
2018-10-18T07:50:30.761Z,77393.31
2018-10-18T07:52:57.765Z,77386.31
2018-10-18T07:55:25.447Z,77378.30
2018-10-18T07:57:52.351Z,77377.30
2018-10-18T08:00:19.363Z,77374.30
2018-10-18T08:02:47.079Z,77377.30
2018-10-18T08:05:15.024Z,77375.30
2018-10-18T08:07:42.710Z,77376.30
2018-10-18T08:10:13.876Z,77379.30
2018-10-18T08:12:43.597Z,77384.30
2018-10-18T08:15:11.827Z,77381.30
2018-10-18T08:17:39.977Z,77378.30
2018-10-18T08:20:08.218Z,77373.30
2018-10-18T08:22:35.187Z,77375.30
2018-10-18T08:25:03.036Z,77376.30
2018-10-18T08:27:29.892Z,77373.30
2018-10-18T08:29:57.705Z,77371.30
2018-10-18T08:32:25.383Z,77367.29
2018-10-18T08:34:53.183Z,77367.29
2018-10-18T08:37:20.870Z,77367.29
2018-10-18T08:39:48.519Z,77367.29
2018-10-18T08:42:16.165Z,77367.29
2018-10-18T08:44:43.778Z,77363.28
2018-10-18T08:47:10.653Z,77364.28
2018-10-18T08:49:37.588Z,77363.28
2018-10-18T08:52:05.307Z,77361.28
2018-10-18T08:54:33.040Z,77361.28
2018-10-18T08:57:00.932Z,77361.28
2018-10-18T08:59:28.740Z,77364.28
2018-10-18T09:01:55.637Z,77360.28
2018-10-18T09:04:22.502Z,77363.28
2018-10-18T09:06:49.385Z,77361.28
2018-10-18T09:09:16.335Z,77358.28
2018-10-18T09:11:44.076Z,77356.28
2018-10-18T09:14:10.956Z,77358.28
2018-10-18T09:16:37.815Z,77357.28
2018-10-18T09:19:05.163Z,77352.28
2018-10-18T09:21:32.010Z,77348.27
2018-10-18T09:23:59.761Z,77345.27
2018-10-18T09:26:26.612Z,77346.27
2018-10-18T09:28:54.487Z,77351.27
2018-10-18T09:31:21.325Z,77348.27
2018-10-18T09:33:49.151Z,77347.27
2018-10-18T09:36:16.926Z,77348.27
2018-10-18T09:38:44.521Z,77343.27
2018-10-18T09:41:11.434Z,77346.27
2018-10-18T09:43:39.441Z,77339.27
2018-10-18T09:46:07.167Z,77335.27
2018-10-18T09:48:38.268Z,77336.27
2018-10-18T09:51:06.045Z,77340.27
2018-10-18T09:53:33.802Z,77337.27
2018-10-18T09:56:01.844Z,77339.27
2018-10-18T09:58:28.608Z,77333.26
2018-10-18T10:01:02.196Z,77339.27
2018-10-18T10:03:30.033Z,77345.27
2018-10-18T10:05:57.933Z,77343.27
2018-10-18T10:08:25.739Z,77351.27
2018-10-18T10:10:53.602Z,77356.28
2018-10-18T10:13:21.602Z,77348.27
2018-10-18T10:15:48.505Z,77347.27
2018-10-18T10:18:15.458Z,77353.28
2018-10-18T10:20:42.316Z,77350.27
2018-10-18T10:23:10.010Z,77350.27
2018-10-18T10:25:36.909Z,77350.27
2018-10-18T10:28:04.560Z,77348.27
2018-10-18T10:30:31.473Z,77348.27
2018-10-18T10:32:59.349Z,77345.27
2018-10-18T10:35:26.188Z,77342.27
2018-10-18T10:37:53.130Z,77339.27
2018-10-18T10:40:20.878Z,77341.27
2018-10-18T10:42:48.790Z,77339.27
2018-10-18T10:45:15.670Z,77339.27
2018-10-18T10:47:43.583Z,77333.26
2018-10-18T10:50:11.312Z,77333.26
2018-10-18T10:52:39.369Z,77331.26
2018-10-18T10:55:08.166Z,77329.25
2018-10-18T10:57:35.933Z,77329.25
2018-10-18T11:00:03.812Z,77326.25
2018-10-18T11:02:31.653Z,77327.25
2018-10-18T11:04:58.538Z,77324.25
2018-10-18T11:07:26.504Z,77319.25
2018-10-18T11:09:53.350Z,77325.25
2018-10-18T11:12:21.154Z,77327.25
2018-10-18T11:14:48.807Z,77327.25
2018-10-18T11:17:16.553Z,77333.26
2018-10-18T11:19:45.178Z,77327.25
2018-10-18T11:22:13.549Z,77328.25
2018-10-18T11:24:41.514Z,77332.26
2018-10-18T11:27:09.289Z,77333.26
2018-10-18T11:29:37.164Z,77336.27
2018-10-18T11:32:05.188Z,77334.26
2018-10-18T11:34:33.006Z,77343.27
2018-10-18T11:37:00.742Z,77337.27
2018-10-18T11:39:28.531Z,77339.27
2018-10-18T11:41:55.472Z,77338.27
2018-10-18T11:44:28.773Z,77331.26
2018-10-18T11:46:56.593Z,77340.27
2018-10-18T11:49:23.508Z,77341.27
2018-10-18T11:51:51.200Z,77343.27
2018-10-18T11:54:19.077Z,77340.27
2018-10-18T11:56:46.923Z,77341.27
2018-10-18T11:59:15.843Z,77343.27
2018-10-18T12:01:44.540Z,77347.27
2018-10-18T12:04:12.400Z,77344.27
2018-10-18T12:06:39.845Z,77346.27
2018-10-18T12:09:08.109Z,77346.27
2018-10-18T12:11:35.009Z,77343.27
2018-10-18T12:14:01.893Z,77334.26
2018-10-18T12:16:28.796Z,77342.27
2018-10-18T12:18:55.724Z,77338.27
2018-10-18T12:21:22.566Z,77340.27
2018-10-18T12:23:50.233Z,77340.27
2018-10-18T12:26:18.122Z,77337.27
2018-10-18T12:28:45.886Z,77339.27
2018-10-18T12:31:14.568Z,77336.27
2018-10-18T12:33:41.425Z,77338.27
2018-10-18T12:36:08.295Z,77335.27
2018-10-18T12:38:35.188Z,77342.27
2018-10-18T12:41:03.103Z,77343.27
2018-10-18T12:43:30.821Z,77343.27
2018-10-18T12:45:57.691Z,77346.27
2018-10-18T12:48:24.774Z,77349.27
2018-10-18T12:50:52.533Z,77343.27
2018-10-18T12:53:20.362Z,77344.27
2018-10-18T12:55:47.240Z,77349.27
2018-10-18T12:58:15.165Z,77351.27
2018-10-18T13:00:43.548Z,77358.28
2018-10-18T13:03:11.553Z,77358.28
2018-10-18T13:05:38.415Z,77359.28
2018-10-18T13:08:05.316Z,77362.28
2018-10-18T13:10:32.186Z,77360.28
2018-10-18T13:13:00.371Z,77359.28
2018-10-18T13:15:28.182Z,77360.28
2018-10-18T13:17:55.967Z,77360.28
2018-10-18T13:20:23.881Z,77361.28
2018-10-18T13:22:50.756Z,77361.28
2018-10-18T13:25:17.664Z,77361.28
2018-10-18T13:27:45.109Z,77366.29
2018-10-18T13:30:12.050Z,77361.28
2018-10-18T13:32:39.816Z,77365.29
2018-10-18T13:35:06.791Z,77375.30
2018-10-18T13:37:33.676Z,77379.30
2018-10-18T13:40:00.542Z,77379.30
2018-10-18T13:42:27.402Z,77378.30
2018-10-18T13:44:54.285Z,77383.30
2018-10-18T13:47:21.147Z,77379.30
2018-10-18T13:49:48.005Z,77377.30
2018-10-18T13:52:14.885Z,77373.30
2018-10-18T13:54:41.744Z,77378.30
2018-10-18T13:57:08.617Z,77375.30
2018-10-18T13:59:41.241Z,77380.30
2018-10-18T14:02:08.179Z,77379.30
2018-10-18T14:04:34.985Z,77383.30
2018-10-18T14:07:01.853Z,77379.30
2018-10-18T14:09:28.732Z,77380.30
2018-10-18T14:12:03.421Z,77377.30
2018-10-18T14:14:30.287Z,77377.30
2018-10-18T14:16:57.202Z,77379.30
2018-10-18T14:19:24.036Z,77376.30
2018-10-18T14:21:50.853Z,77380.30
2018-10-18T14:24:18.650Z,77382.30
2018-10-18T14:26:46.464Z,77384.30
2018-10-18T14:29:15.218Z,77378.30
2018-10-18T14:31:42.046Z,77385.31
2018-10-18T14:34:10.080Z,77386.31
2018-10-18T14:36:37.770Z,77383.30
2018-10-18T14:39:06.452Z,77391.31
2018-10-18T14:41:34.193Z,77386.31
2018-10-18T14:44:02.098Z,77402.33
2018-10-18T14:46:29.917Z,77397.32
2018-10-18T14:48:57.723Z,77389.31
2018-10-18T14:51:25.511Z,77378.30
2018-10-18T14:53:53.349Z,77372.30
2018-10-18T14:56:21.191Z,77367.29
2018-10-18T14:58:48.924Z,77372.30
2018-10-18T15:01:16.601Z,77374.30
2018-10-18T15:03:44.989Z,77375.30
2018-10-18T15:06:12.767Z,77374.30
2018-10-18T15:08:40.629Z,77377.30
2018-10-18T15:11:08.429Z,77373.30
2018-10-18T15:13:36.274Z,77377.30
2018-10-18T15:16:03.132Z,77385.31
2018-10-18T15:18:30.035Z,77382.30
2018-10-18T15:20:57.790Z,77384.30
2018-10-18T15:23:24.629Z,77383.30
2018-10-18T15:25:52.534Z,77391.31
2018-10-18T15:28:20.178Z,77391.31
2018-10-18T15:30:47.958Z,77407.33
2018-10-18T15:33:16.473Z,77406.33
2018-10-18T15:35:44.904Z,77411.33
2018-10-18T15:38:11.875Z,77410.33
2018-10-18T15:40:38.941Z,77405.33
2018-10-18T15:43:06.694Z,77401.33
2018-10-18T15:45:34.482Z,77399.32
2018-10-18T15:48:02.102Z,77407.33
2018-10-18T15:50:28.957Z,77403.33
2018-10-18T15:52:55.831Z,77403.33
2018-10-18T15:55:22.692Z,77404.33
2018-10-18T15:57:49.548Z,77407.33
2018-10-18T16:00:16.412Z,77423.34
2018-10-18T16:02:44.041Z,77414.34
2018-10-18T16:05:11.672Z,77411.33
2018-10-18T16:07:39.588Z,77412.34
2018-10-18T16:10:07.474Z,77413.34
2018-10-18T16:12:34.422Z,77419.34
2018-10-18T16:15:01.293Z,77419.34
2018-10-18T16:17:29.050Z,77422.34
2018-10-18T16:19:56.888Z,77421.34
2018-10-18T16:22:23.743Z,77423.34
2018-10-18T16:24:51.656Z,77437.36
2018-10-18T16:27:19.339Z,77433.36
2018-10-18T16:29:47.190Z,77435.36
2018-10-18T16:32:15.240Z,77433.36
2018-10-18T16:34:43.198Z,77431.35
2018-10-18T16:37:11.064Z,77434.36
2018-10-18T16:39:38.953Z,77433.36
2018-10-18T16:42:06.797Z,77432.35
2018-10-18T16:44:34.516Z,77437.36
2018-10-18T16:47:01.362Z,77439.36
2018-10-18T16:49:29.024Z,77443.36
2018-10-18T16:51:56.884Z,77453.38
2018-10-18T16:54:23.775Z,77445.36
2018-10-18T16:56:51.431Z,77449.37
2018-10-18T16:59:19.065Z,77456.38
2018-10-18T17:01:45.883Z,77457.38
2018-10-18T17:04:14.648Z,77461.38
2018-10-18T17:06:42.750Z,77454.38
2018-10-18T17:09:11.160Z,77459.38
2018-10-18T17:11:39.015Z,77460.38
2018-10-18T17:14:06.814Z,77457.38
2018-10-18T17:16:34.637Z,77467.39
2018-10-18T17:19:02.462Z,77475.39
2018-10-18T17:21:29.428Z,77468.39
2018-10-18T17:23:57.251Z,77467.39
2018-10-18T17:26:25.849Z,77469.39
2018-10-18T17:28:53.824Z,77472.39
2018-10-18T17:31:20.850Z,77477.39
2018-10-18T17:33:47.687Z,77482.41
2018-10-18T17:36:14.741Z,77483.41
2018-10-18T17:38:41.589Z,77478.40
2018-10-18T17:41:08.809Z,77470.39
2018-10-18T17:43:36.247Z,77461.38
2018-10-18T17:46:03.160Z,77454.38
2018-10-18T17:48:30.957Z,77456.38
2018-10-18T17:50:57.973Z,77452.38
2018-10-18T17:53:24.940Z,77448.37
2018-10-18T17:55:52.682Z,77452.38
2018-10-18T17:58:19.692Z,77462.38
2018-10-18T18:00:46.518Z,77484.41
2018-10-18T18:03:14.844Z,77480.40
2018-10-18T18:05:42.442Z,77474.39
2018-10-18T18:08:09.606Z,77472.39
2018-10-18T18:10:36.527Z,77478.40
2018-10-18T18:13:04.398Z,77479.40
2018-10-18T18:15:32.086Z,77487.41
2018-10-18T18:17:59.017Z,77487.41
2018-10-18T18:20:26.911Z,77488.41
2018-10-18T18:22:53.906Z,77496.42
2018-10-18T18:25:22.211Z,77489.41
2018-10-18T18:27:51.474Z,77487.41
2018-10-18T18:30:18.512Z,77475.39
2018-10-18T18:32:45.402Z,77485.41
2018-10-18T18:35:14.130Z,77481.40
2018-10-18T18:37:42.186Z,77486.41
2018-10-18T18:40:09.665Z,77492.41
2018-10-18T18:42:37.780Z,77495.41
2018-10-18T18:45:10.920Z,77501.42
2018-10-18T18:47:38.792Z,77505.42
2018-10-18T18:50:05.971Z,77512.44
2018-10-18T18:52:33.012Z,77520.44
2018-10-18T18:54:59.966Z,77516.44
2018-10-18T18:57:26.852Z,77514.44
2018-10-18T18:59:53.796Z,77519.44
2018-10-18T19:02:20.673Z,77518.44
2018-10-18T19:04:47.552Z,77516.44
2018-10-18T19:07:15.309Z,77523.44
2018-10-18T19:09:45.355Z,77524.45
2018-10-18T19:12:12.268Z,77528.45
2018-10-18T19:14:39.123Z,77529.45
2018-10-18T19:17:06.161Z,77530.45
2018-10-18T19:19:33.010Z,77537.45
2018-10-18T19:22:00.843Z,77540.46
2018-10-18T19:24:28.521Z,77541.46
2018-10-18T19:26:55.454Z,77542.46
2018-10-18T19:29:22.323Z,77543.46
2018-10-18T19:31:49.177Z,77544.47
2018-10-18T19:34:16.057Z,77545.47
2018-10-18T19:36:43.880Z,77546.47
2018-10-18T19:39:10.738Z,77550.47
2018-10-18T19:41:37.687Z,77548.47
2018-10-18T19:44:05.474Z,77556.48
2018-10-18T19:46:32.368Z,77559.48
2018-10-18T19:48:59.379Z,77563.48
2018-10-18T19:51:26.265Z,77558.48
2018-10-18T19:53:54.094Z,77552.47
2018-10-18T19:56:21.085Z,77547.47
2018-10-18T19:58:48.110Z,77557.48
2018-10-18T20:01:15.193Z,77553.47
2018-10-18T20:03:42.198Z,77557.48
2018-10-18T20:06:09.074Z,77560.48
2018-10-18T20:08:35.910Z,77550.47
2018-10-18T20:11:02.754Z,77543.46
2018-10-18T20:13:30.452Z,77544.47
2018-10-18T20:15:58.255Z,77538.45
2018-10-18T20:18:25.212Z,77539.45
2018-10-18T20:20:53.017Z,77539.45
2018-10-18T20:23:19.826Z,77543.46
2018-10-18T20:25:47.669Z,77550.47
2018-10-18T20:28:15.094Z,77551.47
2018-10-18T20:30:41.913Z,77554.47
2018-10-18T20:33:08.847Z,77555.47
2018-10-18T20:35:35.802Z,77558.48
2018-10-18T20:38:03.175Z,77567.48
2018-10-18T20:40:30.939Z,77573.49
2018-10-18T20:42:57.835Z,77568.48
2018-10-18T20:45:31.337Z,77566.48
2018-10-18T20:47:58.412Z,77570.48
2018-10-18T20:50:26.004Z,77581.50
2018-10-18T20:52:52.836Z,77579.50
2018-10-18T20:55:20.703Z,77578.50
2018-10-18T20:57:48.355Z,77582.50
2018-10-18T21:00:15.222Z,77571.48
2018-10-18T21:02:43.491Z,77579.50
2018-10-18T21:05:11.365Z,77582.50
2018-10-18T21:07:38.160Z,77578.50
2018-10-18T21:10:04.930Z,77583.50
2018-10-18T21:12:31.830Z,77587.51
2018-10-18T21:14:59.649Z,77594.52
2018-10-18T21:17:26.542Z,77580.50
2018-10-18T21:19:53.499Z,77581.50
2018-10-18T21:22:20.360Z,77573.49
2018-10-18T21:24:47.337Z,77567.48
2018-10-18T21:27:15.233Z,77571.48
2018-10-18T21:29:42.166Z,77566.48
2018-10-18T21:32:09.915Z,77565.48
2018-10-18T21:34:36.855Z,77568.48
2018-10-18T21:37:03.894Z,77570.48
2018-10-18T21:39:35.738Z,77573.49
2018-10-18T21:42:03.897Z,77573.49
2018-10-18T21:44:32.319Z,77569.48
2018-10-18T21:46:59.830Z,77574.49
2018-10-18T21:49:27.284Z,77584.50
2018-10-18T21:51:54.183Z,77583.50
2018-10-18T21:54:21.054Z,77584.50
2018-10-18T21:56:47.912Z,77587.51
2018-10-18T21:59:15.385Z,77586.51
2018-10-18T22:01:42.166Z,77589.52
2018-10-18T22:04:09.213Z,77589.52
2018-10-18T22:06:36.878Z,77587.51
2018-10-18T22:09:04.825Z,77585.51
2018-10-18T22:11:31.639Z,77587.51
2018-10-18T22:13:58.485Z,77593.52
2018-10-18T22:16:25.308Z,77591.52
2018-10-18T22:18:52.934Z,77594.52
2018-10-18T22:21:19.958Z,77595.52
2018-10-18T22:23:47.635Z,77600.52
2018-10-18T22:26:15.066Z,77601.52
2018-10-18T22:28:41.918Z,77607.53
2018-10-18T22:31:08.753Z,77603.52
2018-10-18T22:33:35.614Z,77603.52
2018-10-18T22:36:03.625Z,77603.52
2018-10-18T22:38:30.482Z,77596.52
2018-10-18T22:40:57.327Z,77593.52
2018-10-18T22:43:24.221Z,77596.52
2018-10-18T22:45:56.690Z,77595.52
2018-10-18T22:48:24.429Z,77595.52
2018-10-18T22:50:51.261Z,77593.52
2018-10-18T22:53:18.152Z,77593.52
2018-10-18T22:55:45.015Z,77592.52
2018-10-18T22:58:11.849Z,77597.52
2018-10-18T23:00:38.704Z,77596.52
2018-10-18T23:03:05.555Z,77606.53
2018-10-18T23:05:32.371Z,77602.52
2018-10-18T23:07:59.259Z,77602.52
2018-10-18T23:10:26.121Z,77609.53
2018-10-18T23:12:53.850Z,77600.52
2018-10-18T23:15:20.697Z,77598.52
2018-10-18T23:17:48.571Z,77602.52
2018-10-18T23:20:15.459Z,77607.53
2018-10-18T23:22:43.991Z,77607.53
2018-10-18T23:25:10.843Z,77606.53
2018-10-18T23:27:37.712Z,77606.53
2018-10-18T23:30:05.546Z,77606.53
2018-10-18T23:32:32.412Z,77608.53
2018-10-18T23:35:00.058Z,77609.53
2018-10-18T23:37:26.927Z,77614.53
2018-10-18T23:39:53.842Z,77617.54
2018-10-18T23:42:20.686Z,77614.53
2018-10-18T23:44:48.552Z,77616.54
2018-10-18T23:47:15.385Z,77609.53
2018-10-18T23:49:42.272Z,77623.55
2018-10-18T23:52:09.816Z,77618.54
2018-10-18T23:54:36.647Z,77619.54
2018-10-18T23:57:03.586Z,77617.54
2018-10-18T23:59:31.317Z,77615.53
